createdAt,value
2018-09-27T00:01:18.040Z,3.70
2018-09-27T00:03:52.534Z,3.83
2018-09-27T00:06:27.166Z,3.60
2018-09-27T00:09:01.609Z,3.60
2018-09-27T00:11:36.117Z,3.40
2018-09-27T00:14:10.705Z,3.30
2018-09-27T00:16:45.288Z,2.90
2018-09-27T00:19:19.809Z,3.70
2018-09-27T00:21:54.181Z,2.50
2018-09-27T00:24:29.017Z,3.63
2018-09-27T00:27:03.392Z,2.93
2018-09-27T00:29:37.981Z,2.90
2018-09-27T00:32:12.253Z,3.37
2018-09-27T00:34:46.987Z,3.07
2018-09-27T00:37:21.312Z,3.23
2018-09-27T00:39:55.725Z,3.43
2018-09-27T00:42:30.388Z,2.67
2018-09-27T00:45:05.014Z,3.10
2018-09-27T00:47:39.463Z,3.60
2018-09-27T00:50:14.097Z,3.10
2018-09-27T00:52:48.411Z,3.30
2018-09-27T00:55:23.324Z,2.77
2018-09-27T00:57:58.097Z,3.03
2018-09-27T01:00:32.327Z,3.50
2018-09-27T01:03:07.022Z,2.57
2018-09-27T01:05:41.629Z,3.10
2018-09-27T01:08:16.114Z,2.73
2018-09-27T01:10:51.048Z,2.40
2018-09-27T01:13:25.132Z,2.90
2018-09-27T01:15:59.833Z,2.60
2018-09-27T01:18:34.285Z,2.93
2018-09-27T01:21:08.754Z,2.53
2018-09-27T01:23:43.317Z,2.60
2018-09-27T01:26:17.841Z,3.40
2018-09-27T01:28:52.520Z,2.90
2018-09-27T01:31:27.210Z,2.53
2018-09-27T01:34:01.625Z,3.10
2018-09-27T01:36:36.156Z,2.90
2018-09-27T01:39:10.668Z,2.63
2018-09-27T01:41:45.205Z,2.43
2018-09-27T01:44:19.674Z,3.30
2018-09-27T01:46:54.438Z,3.47
2018-09-27T01:49:29.011Z,2.70
2018-09-27T01:52:03.560Z,2.40
2018-09-27T01:54:38.337Z,2.93
2018-09-27T01:57:12.530Z,2.90
2018-09-27T01:59:47.252Z,3.43
2018-09-27T02:02:22.363Z,2.47
2018-09-27T02:04:57.394Z,2.80
2018-09-27T02:07:31.965Z,2.83
2018-09-27T02:10:06.725Z,2.73
2018-09-27T02:12:41.391Z,2.83
2018-09-27T02:15:16.377Z,3.20
2018-09-27T02:17:50.917Z,3.27
2018-09-27T02:20:25.284Z,2.70
2018-09-27T02:22:59.749Z,3.37
2018-09-27T02:25:34.584Z,2.93
2018-09-27T02:28:08.900Z,2.87
2018-09-27T02:30:43.591Z,3.20
2018-09-27T02:33:18.152Z,3.30
2018-09-27T02:35:52.472Z,2.73
2018-09-27T02:38:27.497Z,3.10
2018-09-27T02:41:02.616Z,3.33
2018-09-27T02:43:37.149Z,3.00
2018-09-27T02:46:11.825Z,2.60
2018-09-27T02:48:46.493Z,2.83
2018-09-27T02:51:21.086Z,3.17
2018-09-27T02:53:55.666Z,2.80
2018-09-27T02:56:30.158Z,3.07
2018-09-27T02:59:04.821Z,2.90
2018-09-27T03:01:39.406Z,2.80
2018-09-27T03:04:14.037Z,3.27
2018-09-27T03:06:48.569Z,3.40
2018-09-27T03:09:23.141Z,3.10
2018-09-27T03:11:57.654Z,2.90
2018-09-27T03:14:32.172Z,2.67
2018-09-27T03:17:06.849Z,3.00
2018-09-27T03:19:41.432Z,3.03
2018-09-27T03:22:16.077Z,3.10
2018-09-27T03:24:50.722Z,3.83
2018-09-27T03:27:25.289Z,4.30
2018-09-27T03:29:59.832Z,2.73
2018-09-27T03:35:14.959Z,2.97
2018-09-27T03:37:49.478Z,2.90
2018-09-27T03:40:24.796Z,2.70
2018-09-27T03:42:59.669Z,2.97
2018-09-27T03:45:34.232Z,3.23
2018-09-27T03:48:08.740Z,2.80
2018-09-27T03:50:43.448Z,3.17
2018-09-27T03:53:18.119Z,2.80
2018-09-27T03:55:52.502Z,2.93
2018-09-27T03:58:27.125Z,3.00
2018-09-27T04:01:01.625Z,3.07
2018-09-27T04:03:36.300Z,2.70
2018-09-27T04:06:10.876Z,2.73
2018-09-27T04:08:45.593Z,2.80
2018-09-27T04:11:20.125Z,3.00
2018-09-27T04:13:54.614Z,2.60
2018-09-27T04:16:29.121Z,2.93
2018-09-27T04:19:03.742Z,2.83
2018-09-27T04:21:38.464Z,3.43
2018-09-27T04:24:13.049Z,2.53
2018-09-27T04:26:47.373Z,3.00
2018-09-27T04:29:22.143Z,2.73
2018-09-27T04:31:56.557Z,2.50
2018-09-27T04:34:31.191Z,2.57
2018-09-27T04:37:05.832Z,3.40
2018-09-27T04:39:41.644Z,3.00
2018-09-27T04:42:16.501Z,3.40
2018-09-27T04:44:51.206Z,2.97
2018-09-27T04:47:26.309Z,2.80
2018-09-27T04:50:00.910Z,3.83
2018-09-27T04:52:35.538Z,4.53
2018-09-27T04:55:10.340Z,3.33
2018-09-27T04:57:44.855Z,3.20
2018-09-27T05:00:19.245Z,3.13
2018-09-27T05:02:53.753Z,3.10
2018-09-27T05:05:28.433Z,2.83
2018-09-27T05:08:03.141Z,3.10
2018-09-27T05:10:37.382Z,3.80
2018-09-27T05:13:12.286Z,3.40
2018-09-27T05:15:47.550Z,4.10
2018-09-27T05:18:22.007Z,3.10
2018-09-27T05:20:56.872Z,3.00
2018-09-27T05:23:31.322Z,3.57
2018-09-27T05:26:05.904Z,3.17
2018-09-27T05:28:40.400Z,3.13
2018-09-27T05:31:14.975Z,3.37
2018-09-27T05:33:49.507Z,3.40
2018-09-27T05:36:23.889Z,3.70
2018-09-27T05:38:58.450Z,2.90
2018-09-27T05:41:33.068Z,3.70
2018-09-27T05:44:08.063Z,3.73
2018-09-27T05:46:43.118Z,3.50
2018-09-27T05:49:17.745Z,3.40
2018-09-27T05:51:52.193Z,2.80
2018-09-27T05:54:26.857Z,2.70
2018-09-27T05:57:01.600Z,2.90
2018-09-27T05:59:36.101Z,2.90
2018-09-27T06:02:11.273Z,3.30
2018-09-27T06:04:46.293Z,2.83
2018-09-27T06:07:20.873Z,2.73
2018-09-27T06:09:55.564Z,3.20
2018-09-27T06:12:30.170Z,3.37
2018-09-27T06:15:04.672Z,3.60
2018-09-27T06:17:39.775Z,4.07
2018-09-27T06:20:14.584Z,2.77
2018-09-27T06:22:49.041Z,2.80
2018-09-27T06:25:23.584Z,2.70
2018-09-27T06:27:58.172Z,2.63
2018-09-27T06:30:32.818Z,2.60
2018-09-27T06:33:07.482Z,3.00
2018-09-27T06:35:42.319Z,2.30
2018-09-27T06:38:16.617Z,2.30
2018-09-27T06:40:51.262Z,2.60
2018-09-27T06:43:25.800Z,2.70
2018-09-27T06:46:00.435Z,2.37
2018-09-27T06:48:34.977Z,2.03
2018-09-27T06:51:09.616Z,2.13
2018-09-27T06:53:44.306Z,2.00
2018-09-27T06:56:18.756Z,2.70
2018-09-27T06:58:53.442Z,2.40
2018-09-27T07:01:28.124Z,2.30
2018-09-27T07:04:02.481Z,2.50
2018-09-27T07:06:36.989Z,2.43
2018-09-27T07:09:12.809Z,3.33
2018-09-27T07:11:47.470Z,2.40
2018-09-27T07:14:21.830Z,1.90
2018-09-27T07:16:56.485Z,2.00
2018-09-27T07:19:37.980Z,2.63
2018-09-27T07:22:13.205Z,2.07
2018-09-27T07:24:48.359Z,1.67
2018-09-27T07:27:22.952Z,1.70
2018-09-27T07:29:57.493Z,1.87
2018-09-27T07:32:32.165Z,2.30
2018-09-27T07:35:06.641Z,1.60
2018-09-27T07:37:41.222Z,2.00
2018-09-27T07:40:15.676Z,2.47
2018-09-27T07:42:50.302Z,2.20
2018-09-27T07:45:24.946Z,2.37
2018-09-27T07:47:59.302Z,2.30
2018-09-27T07:50:33.982Z,1.77
2018-09-27T07:53:08.908Z,2.07
2018-09-27T07:55:43.555Z,2.10
2018-09-27T07:58:18.794Z,1.80
2018-09-27T08:00:53.403Z,2.40
2018-09-27T08:03:27.868Z,2.33
2018-09-27T08:06:07.964Z,2.03
2018-09-27T08:08:43.222Z,2.20
2018-09-27T08:11:17.711Z,2.20
2018-09-27T08:13:52.117Z,2.07
2018-09-27T08:16:29.967Z,2.73
2018-09-27T08:19:04.513Z,2.20
2018-09-27T08:21:39.306Z,2.13
2018-09-27T08:24:13.842Z,2.27
2018-09-27T08:26:48.591Z,2.30
2018-09-27T08:29:23.042Z,1.80
2018-09-27T08:31:57.796Z,2.07
2018-09-27T08:34:32.271Z,2.10
2018-09-27T08:37:06.940Z,2.43
2018-09-27T08:39:41.448Z,1.80
2018-09-27T08:42:15.992Z,2.07
2018-09-27T08:44:50.947Z,2.03
2018-09-27T08:47:25.427Z,2.37
2018-09-27T08:49:59.793Z,2.20
2018-09-27T08:52:34.459Z,1.70
2018-09-27T08:55:08.885Z,2.13
2018-09-27T08:57:43.643Z,1.80
2018-09-27T09:00:18.051Z,1.50
2018-09-27T09:02:52.685Z,2.10
2018-09-27T09:05:27.121Z,2.00
2018-09-27T09:08:01.770Z,1.37
2018-09-27T09:10:36.242Z,1.90
2018-09-27T09:13:17.466Z,2.30
2018-09-27T09:15:52.406Z,1.30
2018-09-27T09:18:26.924Z,1.90
2018-09-27T09:21:01.984Z,1.30
2018-09-27T09:23:36.392Z,1.73
2018-09-27T09:26:11.052Z,1.80
2018-09-27T09:28:45.667Z,1.50
2018-09-27T09:31:20.237Z,1.40
2018-09-27T09:33:55.125Z,1.50
2018-09-27T09:36:30.248Z,1.87
2018-09-27T09:39:07.595Z,1.97
2018-09-27T09:41:42.805Z,1.90
2018-09-27T09:44:17.618Z,1.70
2018-09-27T09:46:52.460Z,1.63
2018-09-27T09:49:27.641Z,1.80
2018-09-27T09:52:02.313Z,1.40
2018-09-27T09:54:37.012Z,1.40
2018-09-27T09:57:11.494Z,2.10
2018-09-27T09:59:46.200Z,1.70
2018-09-27T10:02:20.817Z,1.40
2018-09-27T10:04:55.305Z,1.50
2018-09-27T10:07:30.017Z,1.50
2018-09-27T10:10:04.435Z,1.50
2018-09-27T10:12:39.076Z,1.63
2018-09-27T10:15:13.479Z,1.30
2018-09-27T10:17:48.321Z,2.10
2018-09-27T10:20:23.261Z,1.73
2018-09-27T10:22:58.457Z,1.60
2018-09-27T10:25:32.908Z,1.30
2018-09-27T10:28:07.636Z,2.20
2018-09-27T10:30:41.955Z,1.90
2018-09-27T10:33:16.807Z,1.53
2018-09-27T10:35:51.817Z,2.40
2018-09-27T10:38:27.286Z,1.70
2018-09-27T10:41:01.695Z,1.60
2018-09-27T10:43:36.394Z,1.73
2018-09-27T10:46:10.904Z,2.80
2018-09-27T10:48:45.489Z,4.00
2018-09-27T10:51:19.991Z,2.37
2018-09-27T10:53:54.690Z,2.40
2018-09-27T10:56:29.188Z,2.63
2018-09-27T10:59:03.983Z,2.20
2018-09-27T11:01:38.609Z,2.37
2018-09-27T11:04:13.085Z,2.10
2018-09-27T11:06:47.659Z,2.20
2018-09-27T11:09:22.291Z,1.70
2018-09-27T11:11:57.178Z,2.00
2018-09-27T11:14:31.392Z,2.07
2018-09-27T11:17:06.098Z,1.87
2018-09-27T11:19:40.566Z,1.80
2018-09-27T11:22:15.082Z,1.90
2018-09-27T11:24:49.842Z,1.90
2018-09-27T11:27:24.325Z,1.60
2018-09-27T11:30:04.198Z,1.53
2018-09-27T11:32:41.321Z,1.57
2018-09-27T11:35:15.969Z,1.77
2018-09-27T11:37:50.552Z,1.40
2018-09-27T11:40:25.451Z,2.10
2018-09-27T11:42:59.958Z,2.20
2018-09-27T11:45:34.634Z,1.70
2018-09-27T11:48:09.326Z,1.77
2018-09-27T11:50:44.041Z,1.80
2018-09-27T11:53:21.369Z,1.90
2018-09-27T11:55:56.419Z,1.87
2018-09-27T11:58:30.869Z,1.60
2018-09-27T12:01:06.145Z,2.70
2018-09-27T12:03:41.094Z,1.60
2018-09-27T12:06:15.632Z,1.50
2018-09-27T12:08:50.175Z,1.73
2018-09-27T12:11:24.914Z,2.10
2018-09-27T12:13:59.766Z,1.80
2018-09-27T12:16:34.508Z,1.60
2018-09-27T12:19:08.889Z,1.70
2018-09-27T12:21:43.601Z,1.87
2018-09-27T12:24:18.166Z,1.47
2018-09-27T12:26:52.757Z,1.80
2018-09-27T12:29:27.318Z,2.03
2018-09-27T12:32:01.986Z,1.50
2018-09-27T12:34:36.407Z,1.80
2018-09-27T12:37:11.265Z,1.90
2018-09-27T12:39:45.916Z,1.47
2018-09-27T12:42:20.826Z,2.07
2018-09-27T12:44:55.214Z,2.73
2018-09-27T12:47:29.806Z,2.60
2018-09-27T12:50:04.574Z,2.83
2018-09-27T12:52:39.234Z,3.07
2018-09-27T12:55:13.703Z,2.20
2018-09-27T12:57:48.416Z,1.70
2018-09-27T13:00:23.174Z,1.97
2018-09-27T13:02:58.017Z,1.97
2018-09-27T13:05:32.155Z,1.87
2018-09-27T13:08:07.356Z,1.60
2018-09-27T13:10:41.679Z,1.50
2018-09-27T13:13:16.221Z,1.63
2018-09-27T13:15:51.213Z,1.77
2018-09-27T13:18:25.437Z,1.90
2018-09-27T13:21:00.090Z,1.43
2018-09-27T13:23:34.613Z,1.43
2018-09-27T13:26:09.267Z,1.33
2018-09-27T13:28:44.008Z,1.90
2018-09-27T13:31:18.391Z,1.70
2018-09-27T13:33:53.060Z,1.77
2018-09-27T13:36:27.878Z,1.60
2018-09-27T13:39:02.550Z,1.90
2018-09-27T13:41:38.429Z,1.50
2018-09-27T13:44:12.699Z,1.97
2018-09-27T13:46:47.274Z,1.43
2018-09-27T13:49:21.889Z,1.60
2018-09-27T13:51:56.421Z,1.93
2018-09-27T13:54:31.077Z,1.80
2018-09-27T13:57:05.871Z,2.00
2018-09-27T13:59:40.296Z,1.90
2018-09-27T14:02:14.849Z,1.60
2018-09-27T14:04:49.396Z,1.83
2018-09-27T14:07:24.076Z,1.83
2018-09-27T14:09:58.774Z,1.70
2018-09-27T14:12:33.125Z,1.60
2018-09-27T14:15:08.047Z,3.10
2018-09-27T14:17:42.450Z,1.43
2018-09-27T14:20:17.128Z,1.93
2018-09-27T14:22:51.716Z,1.50
2018-09-27T14:25:26.385Z,1.60
2018-09-27T14:28:01.179Z,1.83
2018-09-27T14:30:35.737Z,1.60
2018-09-27T14:33:10.345Z,1.80
2018-09-27T14:35:45.009Z,2.10
2018-09-27T14:38:19.561Z,2.60
2018-09-27T14:40:54.245Z,2.07
2018-09-27T14:43:29.151Z,4.07
2018-09-27T14:46:03.480Z,4.40
2018-09-27T14:48:38.423Z,2.30
2018-09-27T14:51:12.921Z,2.57
2018-09-27T14:53:47.342Z,6.20
2018-09-27T14:56:21.964Z,3.30
2018-09-27T14:58:56.586Z,3.93
2018-09-27T15:01:31.114Z,2.63
2018-09-27T15:04:06.157Z,3.00
2018-09-27T15:06:41.548Z,2.07
2018-09-27T15:09:15.821Z,1.93
2018-09-27T15:11:50.802Z,1.90
2018-09-27T15:14:24.927Z,2.20
2018-09-27T15:16:59.605Z,2.17
2018-09-27T15:19:34.144Z,1.80
2018-09-27T15:22:08.903Z,1.77
2018-09-27T15:24:43.573Z,2.03
2018-09-27T15:27:18.163Z,1.90
2018-09-27T15:29:52.747Z,1.80
2018-09-27T15:32:27.465Z,1.73
2018-09-27T15:35:02.130Z,1.80
2018-09-27T15:37:36.926Z,1.60
2018-09-27T15:40:11.350Z,1.80
2018-09-27T15:42:45.986Z,1.80
2018-09-27T15:45:20.753Z,5.13
2018-09-27T15:47:55.405Z,2.33
2018-09-27T15:50:30.309Z,3.03
2018-09-27T15:53:04.537Z,18.17
2018-09-27T15:55:39.134Z,5.77
2018-09-27T15:58:13.725Z,1.80
2018-09-27T16:00:48.361Z,2.17
2018-09-27T16:03:22.782Z,1.80
2018-09-27T16:05:57.334Z,2.90
2018-09-27T16:08:32.074Z,2.53
2018-09-27T16:11:06.702Z,5.67
2018-09-27T16:13:41.263Z,2.03
2018-09-27T16:16:15.829Z,2.10
2018-09-27T16:18:50.549Z,2.37
2018-09-27T16:21:25.225Z,2.33
2018-09-27T16:23:59.663Z,2.30
2018-09-27T16:26:34.588Z,2.53
2018-09-27T16:29:09.301Z,5.17
2018-09-27T16:31:43.806Z,5.87
2018-09-27T16:34:17.989Z,3.97
2018-09-27T16:36:52.482Z,3.50
2018-09-27T16:39:27.142Z,3.33
2018-09-27T16:42:01.610Z,2.97
2018-09-27T16:44:36.162Z,3.00
2018-09-27T16:47:10.795Z,2.60
2018-09-27T16:49:45.350Z,2.23
2018-09-27T16:52:20.012Z,2.30
2018-09-27T16:54:54.951Z,2.30
2018-09-27T16:57:29.162Z,2.00
2018-09-27T17:00:04.041Z,2.60
2018-09-27T17:02:38.738Z,1.90
2018-09-27T17:05:13.169Z,2.90
2018-09-27T17:07:47.350Z,2.00
2018-09-27T17:10:21.994Z,1.90
2018-09-27T17:12:56.580Z,2.47
2018-09-27T17:15:31.118Z,1.73
2018-09-27T17:18:05.756Z,1.93
2018-09-27T17:20:40.341Z,2.50
2018-09-27T17:23:15.397Z,2.53
2018-09-27T17:25:50.610Z,3.33
2018-09-27T17:28:25.434Z,3.03
2018-09-27T17:31:00.542Z,3.20
2018-09-27T17:33:34.732Z,4.33
2018-09-27T17:36:09.521Z,4.87
2018-09-27T17:38:43.971Z,5.10
2018-09-27T17:41:19.057Z,5.97
2018-09-27T17:43:54.403Z,4.90
2018-09-27T17:46:29.148Z,4.80
2018-09-27T17:49:03.702Z,5.53
2018-09-27T17:51:38.536Z,6.33
2018-09-27T17:54:13.355Z,8.03
2018-09-27T17:56:47.804Z,6.67
2018-09-27T17:59:22.381Z,6.00
2018-09-27T18:01:56.805Z,5.70
2018-09-27T18:04:31.369Z,5.67
2018-09-27T18:07:05.978Z,5.97
2018-09-27T18:09:40.613Z,4.77
2018-09-27T18:12:15.013Z,5.23
2018-09-27T18:14:49.430Z,5.37
2018-09-27T18:17:24.134Z,5.07
2018-09-27T18:19:58.674Z,4.73
2018-09-27T18:22:33.738Z,5.37
2018-09-27T18:25:08.840Z,5.30
2018-09-27T18:27:43.349Z,6.07
2018-09-27T18:30:18.144Z,6.03
2018-09-27T18:32:52.314Z,5.90
2018-09-27T18:35:26.882Z,6.00
2018-09-27T18:38:01.701Z,7.57
2018-09-27T18:40:36.253Z,6.00
2018-09-27T18:43:10.823Z,6.70
2018-09-27T18:45:45.213Z,7.40
2018-09-27T18:48:19.836Z,7.40
2018-09-27T18:50:54.374Z,7.27
2018-09-27T18:53:29.372Z,6.53
2018-09-27T18:56:03.537Z,8.47
2018-09-27T18:58:38.229Z,7.50
2018-09-27T19:01:12.910Z,7.83
2018-09-27T19:03:47.559Z,7.93
2018-09-27T19:06:22.629Z,8.90
2018-09-27T19:08:57.800Z,8.70
2018-09-27T19:11:32.385Z,7.80
2018-09-27T19:14:06.972Z,8.57
2018-09-27T19:16:41.440Z,8.90
2018-09-27T19:19:15.990Z,10.13
2018-09-27T19:21:50.518Z,9.70
2018-09-27T19:24:24.957Z,8.40
2018-09-27T19:26:59.668Z,8.10
2018-09-27T19:29:34.024Z,8.30
2018-09-27T19:32:08.576Z,11.20
2018-09-27T19:34:43.013Z,11.83
2018-09-27T19:37:17.489Z,10.20
2018-09-27T19:39:51.961Z,7.87
2018-09-27T19:42:26.482Z,8.50
2018-09-27T19:45:01.215Z,9.43
2018-09-27T19:47:35.685Z,9.90
2018-09-27T19:50:10.196Z,11.33
2018-09-27T19:52:45.053Z,9.50
2018-09-27T19:55:19.277Z,9.77
2018-09-27T19:57:53.948Z,8.73
2018-09-27T20:00:28.779Z,9.07
2018-09-27T20:03:03.883Z,7.80
2018-09-27T20:05:38.822Z,7.80
2018-09-27T20:08:13.426Z,7.53
2018-09-27T20:10:48.049Z,7.20
2018-09-27T20:13:22.660Z,7.70
2018-09-27T20:15:57.239Z,7.67
2018-09-27T20:18:31.983Z,7.73
2018-09-27T20:21:06.925Z,7.77
2018-09-27T20:23:42.009Z,7.40
2018-09-27T20:26:16.501Z,8.63
2018-09-27T20:28:51.235Z,7.83
2018-09-27T20:31:25.820Z,8.13
2018-09-27T20:34:00.428Z,8.53
2018-09-27T20:36:34.981Z,8.63
2018-09-27T20:39:09.585Z,8.00
2018-09-27T20:41:44.110Z,7.33
2018-09-27T20:44:19.473Z,9.10
2018-09-27T20:46:54.348Z,8.90
2018-09-27T20:49:29.001Z,7.80
2018-09-27T20:52:03.372Z,7.33
2018-09-27T20:54:38.738Z,8.73
2018-09-27T20:57:13.554Z,6.77
2018-09-27T20:59:48.161Z,7.90
2018-09-27T21:02:22.581Z,6.37
2018-09-27T21:04:57.355Z,6.70
2018-09-27T21:07:31.823Z,8.10
2018-09-27T21:10:06.449Z,7.73
2018-09-27T21:12:40.941Z,7.63
2018-09-27T21:15:16.257Z,7.80
2018-09-27T21:17:51.579Z,6.20
2018-09-27T21:20:26.587Z,6.50
2018-09-27T21:23:01.278Z,7.20
2018-09-27T21:25:35.514Z,6.03
2018-09-27T21:28:10.031Z,6.60
2018-09-27T21:30:44.649Z,6.57
2018-09-27T21:33:19.225Z,6.50
2018-09-27T21:35:53.832Z,6.73
2018-09-27T21:38:28.654Z,5.07
2018-09-27T21:41:03.116Z,7.53
2018-09-27T21:43:37.672Z,5.40
2018-09-27T21:46:12.213Z,6.70
2018-09-27T21:48:46.989Z,7.10
2018-09-27T21:51:21.325Z,6.17
2018-09-27T21:53:56.072Z,6.63
2018-09-27T21:56:30.357Z,6.57
2018-09-27T21:59:04.874Z,7.23
2018-09-27T22:01:39.825Z,5.80
2018-09-27T22:04:14.115Z,6.77
2018-09-27T22:06:49.312Z,6.00
2018-09-27T22:09:24.417Z,6.20
2018-09-27T22:11:59.132Z,5.50
2018-09-27T22:14:33.486Z,5.83
2018-09-27T22:17:07.985Z,5.57
2018-09-27T22:19:42.729Z,5.33
2018-09-27T22:22:17.384Z,5.07
2018-09-27T22:24:51.705Z,5.00
2018-09-27T22:27:26.427Z,5.40
2018-09-27T22:30:01.068Z,5.50
2018-09-27T22:32:35.744Z,5.63
2018-09-27T22:35:10.403Z,5.90
2018-09-27T22:37:45.253Z,5.40
2018-09-27T22:40:19.851Z,5.07
2018-09-27T22:42:54.366Z,5.13
2018-09-27T22:45:28.837Z,5.10
2018-09-27T22:48:04.159Z,5.00
2018-09-27T22:50:38.925Z,5.27
2018-09-27T22:53:13.723Z,4.57
2018-09-27T22:55:48.494Z,5.07
2018-09-27T22:58:23.041Z,5.30
2018-09-27T23:00:57.476Z,4.73
2018-09-27T23:03:32.022Z,3.90
2018-09-27T23:06:06.600Z,4.03
2018-09-27T23:08:41.357Z,5.73
2018-09-27T23:11:15.948Z,4.43
2018-09-27T23:13:50.383Z,4.23
2018-09-27T23:16:24.855Z,4.30
2018-09-27T23:18:59.681Z,4.50
2018-09-27T23:21:34.021Z,5.03
2018-09-27T23:24:08.724Z,5.23
2018-09-27T23:26:43.247Z,6.23
2018-09-27T23:29:17.801Z,4.37
2018-09-27T23:31:52.391Z,4.53
2018-09-27T23:34:27.123Z,5.10
2018-09-27T23:37:01.665Z,5.03
2018-09-27T23:39:36.148Z,4.83
2018-09-27T23:42:10.999Z,5.50
2018-09-27T23:44:45.522Z,4.03
2018-09-27T23:47:19.953Z,5.57
2018-09-27T23:49:54.628Z,4.77
2018-09-27T23:52:29.108Z,4.67
2018-09-27T23:55:04.036Z,4.47
2018-09-27T23:57:38.366Z,4.17
